Terminal Aerodrome Forecast
Issued by NWS Jacksonville, FL

Home | Current Version | Previous Version | Text Only | Print | Product List | Glossary On
Versions: 1 2 3 4 5 6 7 8 9 10 11 12 13 14 15 16 17 18 19
809
FTUS42 KJAX 191120
TAFSSI
TAF
KSSI 191120Z 1912/2012 26003KT 3SM BR SCT003
      TEMPO 1912/1914 1/2SM FG BKN003
     FM191400 25006KT P6SM SCT020 BKN250
     FM191900 14008KT P6SM SCT050 BKN250=

USA.gov is the U.S. government's official web portal to all federal, state and local government web resources and services.